KFSI/FSI METAR and TAF weather

Enter ICAO airport designator
Station Type Date Time Source
KFSI METAR 2019/02/20 23:56 UTC NOAA

KFSI 202356Z AUTO 22004KT 10SM CLR 13/M04 A2984 RMK AO2 SLP107 T01311041 10149 20076 55000


Station Type Date Time Source
KFSI Decoded METAR 2019/02/20 23:56 UTC NOAA

Fort Sill, OK, United States (KFSI) 34-36N 098-24W 360M
Feb 20, 2019 - 06:56 PM EST / 2019.02.20 2356 UTC
Wind: from the SW (220 degrees) at 5 MPH (4 KT):0
Visibility: 10 mile(s):0
Sky conditions: clear
Temperature: 55.6 F (13.1 C)
Dew Point: 24.6 F (-4.1 C)
Relative Humidity: 29%
Pressure (altimeter): 29.84 in. Hg (1010 hPa)
Pressure tendency: 0.00 inches (0.0 hPa) lower than three hours ago
ob: KFSI 202356Z AUTO 22004KT 10SM CLR 13/M04 A2984 RMK AO2 SLP107 T01311041 10149 20076 55000
cycle: 0

Station Type Date Time Source
KFSI TAF 2019/02/20 22:12 UTC NOAA

TAF KFSI 202200Z 2022/2204 26010G15KT 9999 SKC QNH2982INS
BECMG 2023/2024 14006KT 9999 SCT200 QNH2982INS
BECMG 2115/2116 14012G18KT 9999 BKN140 QNH2994INS
BECMG 2122/2123 13006KT 9999 SCT030 QNH2994INS TX16/2121Z TN01/2112Z LAST NO
AMDS AFT 2104 NEXT 2114


Example: see airport list